Time;durP1;ratioP1;P1;durP2;ratioP2;P2;SDS_P1;SDS_P2;PMS_P1;PMS_P2;Temp;Humidity;BMP_temperature;BMP_pressure;BME280_temperature;BME280_humidity;BME280_pressure;Samples;Min_cycle;Max_cycle;Signal;HPM_P1;HPM_P2
2021/07/29 00:00:51;;;;;;;5.43;3.90;;;;;;;;;;5029211;28;20099;-77
2021/07/29 00:03:18;;;;;;;3.95;3.20;;;;;;;;;;5020158;28;20472;-77
2021/07/29 00:05:46;;;;;;;7.78;4.05;;;;;;;;;;5029104;28;20053;-77
2021/07/29 00:08:13;;;;;;;5.00;3.30;;;;;;;;;;5029907;28;20046;-76
2021/07/29 00:10:40;;;;;;;5.20;3.50;;;;;;;;;;5029493;28;20069;-77
2021/07/29 00:13:06;;;;;;;5.18;3.30;;;;;;;;;;5020248;28;20508;-77
2021/07/29 00:15:33;;;;;;;4.25;3.30;;;;;;;;;;5022518;28;20477;-77
2021/07/29 00:20:26;;;;;;;5.63;3.53;;;;;;;;;;5028388;28;20133;-77
2021/07/29 00:22:54;;;;;;;4.15;3.22;;;;;;;;;;5023243;28;20065;-77
2021/07/29 00:25:21;;;;;;;6.25;3.35;;;;;;;;;;5028807;28;20516;-77
2021/07/29 00:27:48;;;;;;;5.38;3.10;;;;;;;;;;5024845;28;20078;-79
2021/07/29 00:30:15;;;;;;;5.63;3.40;;;;;;;;;;5026318;28;20054;-78
2021/07/29 00:32:42;;;;;;;5.68;3.25;;;;;;;;;;5022649;28;20053;-77
2021/07/29 00:35:09;;;;;;;5.47;3.42;;;;;;;;;;5027630;28;20060;-77
2021/07/29 00:37:37;;;;;;;6.38;3.10;;;;;;;;;;5025293;28;20060;-78
2021/07/29 00:40:04;;;;;;;3.80;2.85;;;;;;;;;;5028074;28;20061;-77
2021/07/29 00:42:30;;;;;;;4.65;3.17;;;;;;;;;;5026565;28;20049;-78
2021/07/29 00:44:57;;;;;;;4.65;3.05;;;;;;;;;;5023695;28;20061;-77
2021/07/29 00:47:23;;;;;;;3.30;2.70;;;;;;;;;;5024493;28;20076;-76
2021/07/29 00:49:50;;;;;;;6.00;3.10;;;;;;;;;;5022809;28;20139;-78
2021/07/29 00:52:18;;;;;;;4.85;2.95;;;;;;;;;;5021575;28;20068;-79
2021/07/29 00:54:45;;;;;;;4.95;2.95;;;;;;;;;;5057583;28;20033;-78
2021/07/29 00:57:11;;;;;;;5.53;2.80;;;;;;;;;;5025329;28;20558;-77
2021/07/29 00:59:38;;;;;;;3.70;2.60;;;;;;;;;;5020326;28;20481;-77
2021/07/29 01:02:05;;;;;;;4.63;3.10;;;;;;;;;;5020830;28;20073;-78
2021/07/29 01:04:32;;;;;;;7.50;3.00;;;;;;;;;;5028840;28;20053;-77
2021/07/29 01:06:58;;;;;;;4.18;2.78;;;;;;;;;;5008807;28;20041;-78
2021/07/29 01:09:25;;;;;;;5.88;3.10;;;;;;;;;;5024598;28;20057;-77
2021/07/29 01:11:51;;;;;;;6.50;2.95;;;;;;;;;;5024545;28;20064;-77
2021/07/29 01:14:18;;;;;;;4.50;2.50;;;;;;;;;;5022192;28;20062;-77
2021/07/29 01:16:44;;;;;;;5.57;3.00;;;;;;;;;;5021216;28;20056;-77
2021/07/29 01:19:12;;;;;;;3.80;2.53;;;;;;;;;;5023189;28;20073;-77
2021/07/29 01:21:39;;;;;;;3.65;2.60;;;;;;;;;;5027479;28;20061;-77
2021/07/29 01:24:05;;;;;;;4.55;2.60;;;;;;;;;;5029068;28;20452;-77
2021/07/29 01:26:32;;;;;;;4.00;2.60;;;;;;;;;;5026970;28;20513;-78
2021/07/29 01:29:00;;;;;;;5.00;2.42;;;;;;;;;;5022609;28;20430;-78
2021/07/29 01:31:26;;;;;;;4.57;2.60;;;;;;;;;;5027608;28;20061;-78
2021/07/29 01:33:53;;;;;;;3.47;2.30;;;;;;;;;;5020187;28;20050;-78
2021/07/29 01:36:20;;;;;;;4.05;2.38;;;;;;;;;;5027169;28;20069;-77
2021/07/29 01:38:46;;;;;;;5.43;2.58;;;;;;;;;;5018639;28;20123;-77
2021/07/29 01:41:12;;;;;;;4.35;2.47;;;;;;;;;;5028181;28;20069;-77
2021/07/29 01:43:39;;;;;;;5.35;2.78;;;;;;;;;;5019448;28;20057;-77
2021/07/29 01:46:05;;;;;;;4.38;2.47;;;;;;;;;;5021986;28;20072;-77
2021/07/29 01:48:32;;;;;;;4.28;2.50;;;;;;;;;;5022186;28;20061;-77
2021/07/29 01:50:59;;;;;;;3.97;2.50;;;;;;;;;;5019925;28;20910;-77
2021/07/29 01:53:25;;;;;;;5.60;3.15;;;;;;;;;;5027881;28;20493;-77
2021/07/29 01:55:51;;;;;;;4.68;2.42;;;;;;;;;;5024634;28;20072;-78
2021/07/29 01:58:18;;;;;;;4.18;2.40;;;;;;;;;;5026277;28;20106;-77
2021/07/29 02:00:46;;;;;;;3.80;2.30;;;;;;;;;;5027224;28;20069;-78
2021/07/29 02:03:12;;;;;;;5.18;2.80;;;;;;;;;;5026679;28;20111;-78
2021/07/29 02:05:38;;;;;;;5.22;2.92;;;;;;;;;;5025067;28;20056;-78
2021/07/29 02:08:05;;;;;;;4.70;2.80;;;;;;;;;;5026340;28;20080;-77
2021/07/29 02:10:32;;;;;;;4.30;2.72;;;;;;;;;;5026045;28;20068;-77
2021/07/29 02:12:59;;;;;;;6.43;2.92;;;;;;;;;;5008068;28;20302;-78
2021/07/29 02:15:25;;;;;;;6.75;2.97;;;;;;;;;;5021202;28;20061;-78
2021/07/29 02:17:58;;;;;;;4.88;2.80;;;;;;;;;;5021716;28;20126;-78
2021/07/29 02:20:25;;;;;;;6.30;3.00;;;;;;;;;;5016589;28;20045;-78
2021/07/29 02:22:51;;;;;;;5.00;2.22;;;;;;;;;;5025795;28;20052;-78
2021/07/29 02:25:18;;;;;;;5.28;3.00;;;;;;;;;;5015486;28;20179;-78
2021/07/29 02:27:45;;;;;;;5.07;2.60;;;;;;;;;;5023367;28;20073;-78
2021/07/29 02:30:11;;;;;;;4.47;2.58;;;;;;;;;;5022025;28;20061;-79
2021/07/29 02:32:38;;;;;;;6.10;2.70;;;;;;;;;;5022576;28;20064;-78
2021/07/29 02:35:05;;;;;;;4.93;2.97;;;;;;;;;;5025105;28;20139;-79
2021/07/29 02:37:31;;;;;;;5.70;3.03;;;;;;;;;;5027378;28;20053;-79
2021/07/29 02:39:58;;;;;;;4.78;2.20;;;;;;;;;;5025453;28;20175;-78
2021/07/29 02:42:25;;;;;;;5.35;2.45;;;;;;;;;;5024247;28;20053;-78
2021/07/29 02:44:51;;;;;;;4.97;2.70;;;;;;;;;;5017478;28;20053;-79
2021/07/29 02:47:18;;;;;;;5.15;2.55;;;;;;;;;;5019043;28;20159;-78
2021/07/29 02:49:44;;;;;;;4.15;2.58;;;;;;;;;;5024007;28;20071;-78
2021/07/29 02:52:11;;;;;;;4.80;2.60;;;;;;;;;;5024932;28;20061;-78
2021/07/29 02:54:37;;;;;;;3.80;2.58;;;;;;;;;;5022792;28;20055;-77
2021/07/29 02:57:03;;;;;;;3.72;2.70;;;;;;;;;;5024279;28;20084;-77
2021/07/29 02:59:30;;;;;;;5.20;2.42;;;;;;;;;;5024023;28;20057;-79
2021/07/29 03:01:56;;;;;;;4.70;2.67;;;;;;;;;;5018956;28;20065;-78
2021/07/29 03:04:24;;;;;;;3.92;2.72;;;;;;;;;;5017784;28;20052;-78
2021/07/29 03:06:50;;;;;;;3.90;2.65;;;;;;;;;;5016550;28;20073;-78
2021/07/29 03:09:16;;;;;;;4.90;2.72;;;;;;;;;;5025487;28;20477;-79
2021/07/29 03:11:43;;;;;;;6.35;2.97;;;;;;;;;;5047427;28;20075;-78
2021/07/29 03:14:09;;;;;;;3.78;2.60;;;;;;;;;;5025150;28;20562;-78
2021/07/29 03:16:36;;;;;;;5.47;2.90;;;;;;;;;;5025917;28;20103;-77
2021/07/29 03:19:02;;;;;;;5.38;2.67;;;;;;;;;;5021607;28;20433;-79
2021/07/29 03:21:29;;;;;;;5.28;2.53;;;;;;;;;;5025259;28;20061;-79
2021/07/29 03:23:55;;;;;;;5.35;2.63;;;;;;;;;;5021658;28;20119;-79
2021/07/29 03:26:21;;;;;;;5.57;2.97;;;;;;;;;;5024446;28;20053;-79
2021/07/29 03:28:48;;;;;;;5.72;2.88;;;;;;;;;;5026763;28;20508;-78
2021/07/29 03:31:14;;;;;;;4.05;2.45;;;;;;;;;;5019165;28;20057;-78
2021/07/29 03:33:40;;;;;;;3.35;2.50;;;;;;;;;;5026157;28;20053;-78
2021/07/29 03:36:07;;;;;;;4.47;2.72;;;;;;;;;;5027188;28;20065;-79
2021/07/29 03:38:34;;;;;;;4.78;2.92;;;;;;;;;;5026185;28;20071;-79
2021/07/29 03:41:00;;;;;;;5.53;2.60;;;;;;;;;;5017040;28;20065;-79
2021/07/29 03:43:26;;;;;;;5.03;2.72;;;;;;;;;;5023660;28;20060;-79
2021/07/29 03:45:53;;;;;;;4.10;2.67;;;;;;;;;;5026444;28;20426;-79
2021/07/29 03:48:19;;;;;;;4.20;2.55;;;;;;;;;;5056130;28;20073;-79
2021/07/29 03:50:47;;;;;;;4.15;2.25;;;;;;;;;;5025061;28;20069;-79
2021/07/29 03:53:13;;;;;;;5.22;2.53;;;;;;;;;;5023965;28;20458;-79
2021/07/29 03:55:40;;;;;;;5.57;2.53;;;;;;;;;;5027279;28;20070;-79
2021/07/29 03:58:07;;;;;;;4.60;2.60;;;;;;;;;;5028815;28;20060;-79
2021/07/29 04:00:33;;;;;;;4.38;2.30;;;;;;;;;;5029165;28;20053;-79
2021/07/29 04:03:00;;;;;;;5.38;2.20;;;;;;;;;;5028326;28;20158;-79
2021/07/29 04:05:26;;;;;;;3.30;2.20;;;;;;;;;;5023756;28;20064;-79
2021/07/29 04:07:53;;;;;;;4.13;2.60;;;;;;;;;;5026551;28;20061;-79
2021/07/29 04:10:19;;;;;;;4.38;2.58;;;;;;;;;;5029728;28;20362;-79
2021/07/29 04:12:45;;;;;;;4.25;2.33;;;;;;;;;;5029625;28;20053;-79
2021/07/29 04:15:12;;;;;;;3.47;2.53;;;;;;;;;;5021839;28;20034;-79
2021/07/29 04:17:42;;;;;;;4.73;2.20;;;;;;;;;;5028989;28;20442;-79
2021/07/29 04:20:13;;;;;;;4.03;2.65;;;;;;;;;;5026732;28;20047;-79
2021/07/29 04:22:40;;;;;;;4.05;2.30;;;;;;;;;;5027685;28;20106;-78
2021/07/29 04:25:06;;;;;;;3.38;2.03;;;;;;;;;;5060453;28;20053;-78
2021/07/29 04:27:32;;;;;;;6.63;2.50;;;;;;;;;;5026707;28;20524;-78
2021/07/29 04:29:59;;;;;;;4.43;2.28;;;;;;;;;;5026281;28;20287;-79
2021/07/29 04:32:25;;;;;;;4.50;2.50;;;;;;;;;;5021844;28;20069;-78
2021/07/29 04:34:52;;;;;;;5.07;2.30;;;;;;;;;;5060641;28;20115;-77
2021/07/29 04:37:19;;;;;;;4.38;2.40;;;;;;;;;;5026973;28;20030;-77
2021/07/29 04:39:45;;;;;;;4.22;2.40;;;;;;;;;;5022713;28;20075;-78
2021/07/29 04:42:12;;;;;;;5.43;2.33;;;;;;;;;;5029037;28;20123;-77
2021/07/29 04:44:39;;;;;;;3.25;1.90;;;;;;;;;;5027934;28;20030;-77
2021/07/29 04:47:06;;;;;;;3.75;2.10;;;;;;;;;;5027862;28;20073;-77
2021/07/29 04:49:32;;;;;;;5.72;2.25;;;;;;;;;;5025836;28;20478;-77
2021/07/29 04:51:59;;;;;;;3.15;2.10;;;;;;;;;;5028180;28;20061;-77
2021/07/29 04:54:25;;;;;;;3.75;2.45;;;;;;;;;;5024610;28;20098;-77
2021/07/29 04:56:52;;;;;;;4.60;2.20;;;;;;;;;;5027745;28;20321;-78
2021/07/29 04:59:21;;;;;;;2.92;2.08;;;;;;;;;;5029296;28;20057;-78
2021/07/29 05:01:48;;;;;;;5.05;2.20;;;;;;;;;;5026654;28;20061;-78
2021/07/29 05:04:14;;;;;;;3.25;1.85;;;;;;;;;;5026759;28;20060;-78
2021/07/29 05:06:41;;;;;;;5.15;2.30;;;;;;;;;;5018929;28;20060;-78
2021/07/29 05:09:08;;;;;;;3.38;2.00;;;;;;;;;;5029584;28;20065;-77
2021/07/29 05:11:35;;;;;;;3.17;2.08;;;;;;;;;;5022999;28;20061;-76
2021/07/29 05:14:02;;;;;;;4.95;2.17;;;;;;;;;;5026828;28;20093;-78
2021/07/29 05:16:29;;;;;;;3.88;2.30;;;;;;;;;;5027973;28;20057;-80
2021/07/29 05:18:55;;;;;;;4.53;2.10;;;;;;;;;;5018896;28;20123;-79
2021/07/29 05:21:21;;;;;;;4.47;2.13;;;;;;;;;;5055813;28;20504;-76
2021/07/29 05:23:48;;;;;;;4.65;2.42;;;;;;;;;;5023747;28;20060;-76
2021/07/29 05:26:15;;;;;;;3.28;2.10;;;;;;;;;;5028275;28;20083;-77
2021/07/29 05:28:42;;;;;;;5.53;2.85;;;;;;;;;;5059384;28;20081;-76
2021/07/29 05:31:09;;;;;;;4.47;2.20;;;;;;;;;;5027064;28;20203;-76
2021/07/29 05:33:35;;;;;;;9.70;2.65;;;;;;;;;;5027001;28;20065;-75
2021/07/29 05:36:02;;;;;;;6.57;2.10;;;;;;;;;;5026306;28;20071;-74
2021/07/29 05:38:28;;;;;;;5.28;1.95;;;;;;;;;;5025043;28;20496;-74
2021/07/29 05:40:58;;;;;;;7.28;2.10;;;;;;;;;;5024462;28;20076;-74
2021/07/29 05:43:28;;;;;;;8.75;2.10;;;;;;;;;;5022666;28;20053;-75
2021/07/29 05:45:54;;;;;;;4.40;2.15;;;;;;;;;;5026720;28;20134;-74
2021/07/29 05:48:21;;;;;;;7.15;2.08;;;;;;;;;;5023965;28;20069;-74
2021/07/29 05:50:47;;;;;;;6.18;1.95;;;;;;;;;;5023348;28;20118;-75
2021/07/29 05:53:14;;;;;;;6.05;2.22;;;;;;;;;;5026837;28;20068;-73
2021/07/29 05:55:42;;;;;;;7.57;2.40;;;;;;;;;;5024616;28;20060;-73
2021/07/29 05:58:09;;;;;;;4.72;2.33;;;;;;;;;;5024394;28;20054;-76
2021/07/29 06:00:35;;;;;;;16.33;4.20;;;;;;;;;;5026902;28;20053;-79
2021/07/29 06:03:02;;;;;;;13.55;4.10;;;;;;;;;;5026889;28;20041;-75
2021/07/29 06:05:28;;;;;;;8.95;2.60;;;;;;;;;;5026780;28;20037;-75
2021/07/29 06:07:54;;;;;;;8.30;2.33;;;;;;;;;;5021390;28;20599;-75
2021/07/29 06:10:21;;;;;;;6.45;2.42;;;;;;;;;;5055452;28;20111;-75
2021/07/29 06:12:47;;;;;;;4.97;2.47;;;;;;;;;;5021828;28;20061;-76
2021/07/29 06:15:14;;;;;;;5.15;1.88;;;;;;;;;;5023987;28;20672;-75
2021/07/29 06:17:44;;;;;;;5.22;2.35;;;;;;;;;;5024545;28;20087;-76
2021/07/29 06:20:10;;;;;;;4.78;2.42;;;;;;;;;;5024749;28;20073;-75
2021/07/29 06:22:36;;;;;;;6.78;2.00;;;;;;;;;;5027748;28;20087;-76
2021/07/29 06:25:08;;;;;;;3.75;2.05;;;;;;;;;;5026640;28;20033;-75
2021/07/29 06:27:36;;;;;;;6.15;2.00;;;;;;;;;;5026241;28;20118;-76
2021/07/29 06:30:03;;;;;;;6.25;2.00;;;;;;;;;;5007680;28;20144;-75
2021/07/29 06:32:33;;;;;;;3.90;1.83;;;;;;;;;;5007885;28;20576;-75
2021/07/29 06:34:59;;;;;;;3.60;1.95;;;;;;;;;;5005047;28;20782;-75
2021/07/29 06:37:26;;;;;;;4.20;1.88;;;;;;;;;;5018557;28;20037;-75
2021/07/29 06:39:52;;;;;;;3.83;1.80;;;;;;;;;;5025337;28;20061;-76
2021/07/29 06:42:19;;;;;;;5.90;1.80;;;;;;;;;;5026826;28;20384;-75
2021/07/29 06:44:45;;;;;;;4.90;1.92;;;;;;;;;;5027179;28;20060;-75
2021/07/29 06:47:15;;;;;;;5.18;1.73;;;;;;;;;;5020164;28;20123;-76
2021/07/29 06:49:41;;;;;;;3.08;1.88;;;;;;;;;;5010876;28;20068;-76
2021/07/29 06:52:10;;;;;;;4.95;2.20;;;;;;;;;;5023524;28;20053;-76
2021/07/29 06:54:37;;;;;;;4.20;1.90;;;;;;;;;;5026306;28;20099;-76
2021/07/29 06:57:03;;;;;;;4.97;1.90;;;;;;;;;;5023021;28;20061;-77
2021/07/29 06:59:30;;;;;;;3.17;1.83;;;;;;;;;;5025100;28;20115;-76
2021/07/29 07:01:56;;;;;;;5.05;2.30;;;;;;;;;;5024301;28;20065;-75
2021/07/29 07:04:22;;;;;;;5.35;2.20;;;;;;;;;;5024943;28;20057;-75
2021/07/29 07:06:49;;;;;;;4.95;2.00;;;;;;;;;;5025933;28;20061;-75
2021/07/29 07:09:15;;;;;;;3.65;1.60;;;;;;;;;;5027217;28;20061;-75
2021/07/29 07:11:42;;;;;;;4.22;1.90;;;;;;;;;;5021027;28;20062;-76
2021/07/29 07:14:09;;;;;;;4.05;2.00;;;;;;;;;;5022036;28;20068;-75
2021/07/29 07:16:36;;;;;;;2.85;2.10;;;;;;;;;;5024507;28;20068;-76
2021/07/29 07:19:02;;;;;;;4.10;1.90;;;;;;;;;;5024327;28;20057;-75
2021/07/29 07:21:29;;;;;;;3.22;1.77;;;;;;;;;;5026251;28;20072;-75
2021/07/29 07:23:55;;;;;;;4.93;2.28;;;;;;;;;;5024065;28;20069;-76
2021/07/29 07:26:22;;;;;;;4.25;1.98;;;;;;;;;;5026292;28;20053;-75
2021/07/29 07:28:49;;;;;;;2.88;1.85;;;;;;;;;;5018558;28;20081;-75
2021/07/29 07:31:17;;;;;;;3.45;1.60;;;;;;;;;;5025099;28;20053;-75
2021/07/29 07:33:44;;;;;;;5.03;2.00;;;;;;;;;;5026424;28;20060;-77
2021/07/29 07:36:10;;;;;;;6.25;2.38;;;;;;;;;;5030427;28;20497;-75
2021/07/29 07:38:37;;;;;;;3.47;1.83;;;;;;;;;;5015394;28;20065;-76
2021/07/29 07:41:07;;;;;;;3.33;2.03;;;;;;;;;;5028821;28;20489;-75
2021/07/29 07:43:34;;;;;;;5.15;1.67;;;;;;;;;;5029026;28;20068;-75
2021/07/29 07:46:01;;;;;;;4.03;1.90;;;;;;;;;;5028692;28;20759;-75
2021/07/29 07:48:27;;;;;;;4.40;2.05;;;;;;;;;;5030014;28;20053;-75
2021/07/29 07:50:54;;;;;;;3.67;1.80;;;;;;;;;;5029625;28;20453;-75
2021/07/29 07:53:29;;;;;;;4.65;2.08;;;;;;;;;;5042176;28;20062;-75
2021/07/29 07:55:56;;;;;;;6.03;2.33;;;;;;;;;;5023436;28;20057;-76
2021/07/29 07:58:23;;;;;;;3.75;1.85;;;;;;;;;;5026817;28;20057;-75
2021/07/29 08:00:49;;;;;;;5.50;2.20;;;;;;;;;;5061061;28;20034;-76
2021/07/29 08:03:16;;;;;;;5.28;1.90;;;;;;;;;;5025036;28;20083;-75
2021/07/29 08:05:42;;;;;;;4.43;1.90;;;;;;;;;;5027370;28;20065;-80
2021/07/29 08:08:09;;;;;;;5.13;2.13;;;;;;;;;;5020077;28;20635;-75
2021/07/29 08:10:36;;;;;;;4.07;1.90;;;;;;;;;;5028566;28;20065;-76
2021/07/29 08:13:03;;;;;;;4.32;2.03;;;;;;;;;;5030674;28;20084;-76
2021/07/29 08:15:30;;;;;;;5.53;2.40;;;;;;;;;;5023612;28;20061;-76
2021/07/29 08:17:56;;;;;;;3.80;1.90;;;;;;;;;;5054693;28;20063;-76
2021/07/29 08:20:24;;;;;;;4.75;1.70;;;;;;;;;;5020550;28;20505;-76
2021/07/29 08:22:52;;;;;;;3.38;1.73;;;;;;;;;;5032653;28;20112;-76
2021/07/29 08:25:20;;;;;;;3.75;1.88;;;;;;;;;;5025601;28;20111;-76
2021/07/29 08:27:50;;;;;;;4.45;1.83;;;;;;;;;;5027508;28;20065;-76
2021/07/29 08:30:16;;;;;;;4.40;2.20;;;;;;;;;;5026372;28;20072;-75
2021/07/29 08:32:43;;;;;;;4.28;1.85;;;;;;;;;;5028729;28;20053;-75
2021/07/29 08:35:10;;;;;;;5.20;1.98;;;;;;;;;;5028667;28;20379;-75
2021/07/29 08:37:37;;;;;;;2.58;1.40;;;;;;;;;;5024295;28;20499;-75
2021/07/29 08:40:04;;;;;;;3.70;1.27;;;;;;;;;;5027543;28;20054;-75
2021/07/29 08:42:34;;;;;;;3.83;1.27;;;;;;;;;;5028110;28;20155;-75
2021/07/29 08:45:00;;;;;;;2.35;0.88;;;;;;;;;;5028753;28;20061;-75
2021/07/29 08:47:31;;;;;;;2.08;0.88;;;;;;;;;;5029524;28;20095;-75
2021/07/29 08:49:57;;;;;;;2.25;0.90;;;;;;;;;;5023774;28;20050;-75
2021/07/29 08:52:23;;;;;;;4.10;1.10;;;;;;;;;;5020800;28;20049;-75
2021/07/29 08:54:51;;;;;;;3.47;1.10;;;;;;;;;;5026461;28;20493;-76
2021/07/29 08:57:26;;;;;;;3.35;0.95;;;;;;;;;;5027781;28;20057;-75
2021/07/29 08:59:53;;;;;;;2.10;1.00;;;;;;;;;;5024129;28;20111;-75
2021/07/29 09:02:26;;;;;;;4.22;1.25;;;;;;;;;;5027599;28;20057;-74
2021/07/29 09:05:11;;;;;;;1.92;1.30;;;;;;;;;;5020485;28;20580;-75
2021/07/29 09:07:39;;;;;;;3.15;1.13;;;;;;;;;;5025710;28;20115;-76
2021/07/29 09:10:17;;;;;;;2.42;1.00;;;;;;;;;;5024433;28;20114;-77
2021/07/29 09:12:44;;;;;;;3.90;0.95;;;;;;;;;;5025865;28;20183;-75
2021/07/29 09:15:20;;;;;;;3.78;1.20;;;;;;;;;;5023229;28;20061;-76
2021/07/29 09:17:47;;;;;;;2.42;1.30;;;;;;;;;;5024773;28;20069;-76
2021/07/29 09:20:17;;;;;;;4.65;1.30;;;;;;;;;;5026658;28;20079;-74
2021/07/29 09:22:43;;;;;;;1.60;1.05;;;;;;;;;;5024016;28;20442;-75
2021/07/29 09:25:13;;;;;;;6.05;1.35;;;;;;;;;;5024847;28;20053;-76
2021/07/29 09:27:39;;;;;;;3.78;1.25;;;;;;;;;;5024811;28;20068;-76
2021/07/29 09:30:23;;;;;;;4.07;1.10;;;;;;;;;;5026933;28;20095;-75
2021/07/29 09:32:53;;;;;;;3.00;1.17;;;;;;;;;;5027723;28;20053;-75
2021/07/29 09:35:38;;;;;;;2.63;1.00;;;;;;;;;;5027600;28;20053;-76
2021/07/29 09:38:06;;;;;;;2.60;1.20;;;;;;;;;;5025515;28;21330;-75
2021/07/29 09:40:46;;;;;;;3.65;1.08;;;;;;;;;;5027337;28;20034;-76
2021/07/29 09:43:14;;;;;;;2.97;1.20;;;;;;;;;;5021826;28;20107;-77
2021/07/29 09:45:42;;;;;;;2.40;1.20;;;;;;;;;;5022428;28;20149;-76
2021/07/29 09:48:08;;;;;;;3.58;1.40;;;;;;;;;;5026814;28;20141;-76
2021/07/29 09:50:35;;;;;;;2.42;0.95;;;;;;;;;;5025972;28;20107;-76
2021/07/29 09:53:02;;;;;;;5.57;1.30;;;;;;;;;;5025895;28;21265;-76
2021/07/29 09:55:30;;;;;;;4.32;1.52;;;;;;;;;;5024610;28;20079;-76
2021/07/29 09:57:56;;;;;;;2.25;1.23;;;;;;;;;;5025297;28;20130;-76
2021/07/29 10:00:23;;;;;;;3.25;1.40;;;;;;;;;;5025504;28;20057;-76
2021/07/29 10:02:50;;;;;;;3.70;1.40;;;;;;;;;;5024488;28;20064;-76
2021/07/29 10:05:18;;;;;;;3.40;1.20;;;;;;;;;;5028077;28;20065;-76
2021/07/29 10:07:46;;;;;;;4.03;1.45;;;;;;;;;;5025422;28;20053;-76
2021/07/29 10:10:16;;;;;;;4.15;1.48;;;;;;;;;;5025826;28;20029;-76
2021/07/29 10:12:47;;;;;;;3.80;1.38;;;;;;;;;;5021902;28;20053;-76
2021/07/29 10:15:13;;;;;;;3.35;1.23;;;;;;;;;;5024751;28;20509;-77
2021/07/29 10:17:41;;;;;;;2.80;1.42;;;;;;;;;;5027311;28;20077;-76
2021/07/29 10:20:17;;;;;;;1.88;1.13;;;;;;;;;;5025935;28;20472;-76
2021/07/29 10:22:45;;;;;;;3.13;1.20;;;;;;;;;;5025548;28;20049;-76
2021/07/29 10:25:12;;;;;;;4.50;1.20;;;;;;;;;;5024875;28;20049;-76
2021/07/29 10:27:38;;;;;;;2.10;1.27;;;;;;;;;;5025553;28;20053;-76
2021/07/29 10:30:28;;;;;;;2.58;1.10;;;;;;;;;;5025856;28;20065;-76
2021/07/29 10:32:57;;;;;;;2.50;1.10;;;;;;;;;;5022616;28;20787;-76
2021/07/29 10:35:26;;;;;;;2.08;1.00;;;;;;;;;;5026214;28;20060;-76
2021/07/29 10:37:54;;;;;;;2.92;1.10;;;;;;;;;;5023600;28;20060;-76
2021/07/29 10:40:37;;;;;;;2.13;1.10;;;;;;;;;;5026665;28;20061;-76
2021/07/29 10:43:22;;;;;;;3.58;1.00;;;;;;;;;;5025714;28;22177;-76
2021/07/29 10:45:52;;;;;;;4.10;1.25;;;;;;;;;;5025859;28;20115;-76
2021/07/29 10:48:37;;;;;;;2.45;0.93;;;;;;;;;;5024008;28;20505;-76
2021/07/29 10:51:16;;;;;;;4.00;1.15;;;;;;;;;;5023346;28;21292;-76
2021/07/29 10:53:43;;;;;;;2.38;1.15;;;;;;;;;;5015600;28;20482;-76
2021/07/29 10:56:14;;;;;;;3.70;1.10;;;;;;;;;;5024930;28;20040;-75
2021/07/29 10:58:41;;;;;;;8.73;1.33;;;;;;;;;;5021410;28;20085;-76
2021/07/29 11:01:11;;;;;;;2.13;1.02;;;;;;;;;;5024576;28;20053;-76
2021/07/29 11:03:51;;;;;;;9.75;1.10;;;;;;;;;;5022861;28;20061;-77
2021/07/29 11:06:25;;;;;;;5.75;1.00;;;;;;;;;;5028003;28;20131;-77
2021/07/29 11:08:54;;;;;;;2.33;1.10;;;;;;;;;;5027565;28;20091;-76
2021/07/29 11:11:21;;;;;;;3.15;1.00;;;;;;;;;;5027461;28;20065;-76
2021/07/29 11:13:48;;;;;;;1.45;1.20;;;;;;;;;;5029134;28;20061;-76
2021/07/29 11:16:15;;;;;;;4.57;1.20;;;;;;;;;;5027909;28;20168;-76
2021/07/29 11:18:59;;;;;;;5.20;1.13;;;;;;;;;;5033251;28;20072;-77
2021/07/29 11:22:04;;;;;;;2.72;1.00;;;;;;;;;;5012699;28;20179;-76
2021/07/29 11:24:31;;;;;;;3.78;1.20;;;;;;;;;;5020761;28;20042;-75
2021/07/29 11:26:58;;;;;;;2.13;1.05;;;;;;;;;;5020374;28;20058;-76
2021/07/29 11:29:24;;;;;;;2.45;0.90;;;;;;;;;;5024042;28;20069;-75
2021/07/29 11:31:55;;;;;;;3.13;0.95;;;;;;;;;;5030741;28;20614;-76
2021/07/29 11:34:31;;;;;;;2.53;1.30;;;;;;;;;;5027986;28;20069;-76
2021/07/29 11:36:58;;;;;;;3.78;1.40;;;;;;;;;;5026904;28;20501;-75
2021/07/29 11:39:35;;;;;;;4.40;1.33;;;;;;;;;;5031017;28;20047;-76
2021/07/29 11:42:02;;;;;;;6.35;1.60;;;;;;;;;;5039388;28;20080;-79
2021/07/29 11:44:38;;;;;;;3.55;1.30;;;;;;;;;;5026835;28;20126;-78
2021/07/29 11:47:05;;;;;;;2.83;1.10;;;;;;;;;;5027512;28;20601;-78
2021/07/29 11:49:31;;;;;;;5.43;1.40;;;;;;;;;;5028398;28;20069;-77
2021/07/29 11:52:10;;;;;;;9.57;1.30;;;;;;;;;;5025139;28;20053;-76
2021/07/29 11:54:37;;;;;;;3.50;0.98;;;;;;;;;;5025956;28;20123;-76
2021/07/29 11:57:04;;;;;;;3.78;1.02;;;;;;;;;;5029595;28;20076;-76
2021/07/29 11:59:49;;;;;;;5.50;1.30;;;;;;;;;;5026701;28;20069;-76
2021/07/29 12:02:21;;;;;;;8.52;1.80;;;;;;;;;;5024803;28;20057;-76
2021/07/29 12:04:48;;;;;;;5.47;1.33;;;;;;;;;;5058028;28;20038;-76
2021/07/29 12:07:15;;;;;;;6.78;1.40;;;;;;;;;;5019230;28;21325;-75
2021/07/29 12:09:43;;;;;;;4.90;1.17;;;;;;;;;;5025734;28;20077;-76
2021/07/29 12:12:10;;;;;;;4.20;1.10;;;;;;;;;;5030653;28;20065;-75
2021/07/29 12:14:37;;;;;;;4.97;1.00;;;;;;;;;;5028822;28;20501;-76
2021/07/29 12:17:04;;;;;;;4.50;0.80;;;;;;;;;;5021838;28;20115;-75
2021/07/29 12:19:30;;;;;;;4.53;1.10;;;;;;;;;;5025466;28;20115;-75
2021/07/29 12:21:56;;;;;;;3.70;1.00;;;;;;;;;;5029401;28;20060;-75
2021/07/29 12:24:23;;;;;;;4.43;1.35;;;;;;;;;;5024722;28;20493;-75
2021/07/29 12:27:08;;;;;;;6.53;1.90;;;;;;;;;;5026844;28;20116;-75
2021/07/29 12:29:39;;;;;;;3.90;1.27;;;;;;;;;;5048318;28;20056;-77
2021/07/29 12:32:05;;;;;;;2.45;0.90;;;;;;;;;;5029277;28;20063;-76
2021/07/29 12:34:35;;;;;;;3.25;0.80;;;;;;;;;;5028567;28;20115;-75
2021/07/29 12:37:01;;;;;;;2.60;0.90;;;;;;;;;;5026339;28;20072;-75
2021/07/29 12:39:34;;;;;;;2.92;1.20;;;;;;;;;;5020383;28;20088;-74
2021/07/29 12:42:00;;;;;;;2.38;0.77;;;;;;;;;;5027883;28;20045;-75
2021/07/29 12:44:26;;;;;;;1.98;0.80;;;;;;;;;;5029861;28;20532;-75
2021/07/29 12:47:10;;;;;;;3.88;1.27;;;;;;;;;;5025870;28;20064;-76
2021/07/29 12:49:40;;;;;;;2.35;0.75;;;;;;;;;;5029141;28;20077;-79
2021/07/29 12:52:27;;;;;;;3.03;0.90;;;;;;;;;;5022713;28;20192;-76
2021/07/29 12:55:00;;;;;;;4.22;0.80;;;;;;;;;;5020455;28;20061;-77
2021/07/29 12:57:27;;;;;;;3.38;0.90;;;;;;;;;;5019138;28;20057;-76
2021/07/29 12:59:53;;;;;;;2.92;0.90;;;;;;;;;;5036618;28;20064;-77
2021/07/29 13:02:20;;;;;;;3.08;0.90;;;;;;;;;;5039745;28;20056;-79
2021/07/29 13:04:46;;;;;;;2.50;0.70;;;;;;;;;;5018636;28;20105;-80
2021/07/29 13:07:15;;;;;;;4.97;1.80;;;;;;;;;;5051154;28;20613;-79
2021/07/29 13:09:42;;;;;;;3.33;1.02;;;;;;;;;;5027567;28;20089;-79
2021/07/29 13:12:09;;;;;;;2.63;1.63;;;;;;;;;;5029503;28;20492;-80
2021/07/29 13:14:36;;;;;;;3.15;1.00;;;;;;;;;;5029312;28;20516;-79
2021/07/29 13:17:03;;;;;;;3.28;0.90;;;;;;;;;;5027619;28;20065;-78
2021/07/29 13:19:30;;;;;;;4.82;1.40;;;;;;;;;;5028509;28;20131;-78
2021/07/29 13:21:56;;;;;;;3.75;1.38;;;;;;;;;;5024524;28;20506;-79
2021/07/29 13:24:23;;;;;;;3.95;1.13;;;;;;;;;;5024440;28;20065;-78
2021/07/29 13:26:49;;;;;;;5.75;1.00;;;;;;;;;;5038482;28;20057;-79
2021/07/29 13:29:15;;;;;;;6.65;1.20;;;;;;;;;;5021023;28;20066;-79
2021/07/29 13:31:42;;;;;;;3.03;1.00;;;;;;;;;;5050824;28;20074;-78
2021/07/29 13:34:08;;;;;;;5.30;1.15;;;;;;;;;;5029088;28;20061;-78
2021/07/29 13:36:35;;;;;;;5.13;1.10;;;;;;;;;;5027427;28;20076;-79
2021/07/29 13:39:01;;;;;;;2.13;1.00;;;;;;;;;;5024926;28;20521;-79
2021/07/29 13:41:27;;;;;;;3.40;1.00;;;;;;;;;;5025733;28;20053;-79
2021/07/29 13:43:54;;;;;;;2.60;0.70;;;;;;;;;;5025365;28;20097;-78
2021/07/29 13:46:20;;;;;;;3.90;1.02;;;;;;;;;;5023909;28;20061;-78
2021/07/29 13:48:47;;;;;;;2.08;0.95;;;;;;;;;;5025593;28;20077;-77
2021/07/29 13:51:13;;;;;;;2.17;1.13;;;;;;;;;;5028547;28;20492;-77
2021/07/29 13:53:40;;;;;;;2.38;0.65;;;;;;;;;;5027566;28;21045;-78
2021/07/29 13:56:06;;;;;;;1.77;0.70;;;;;;;;;;5028256;28;20057;-77
2021/07/29 13:58:32;;;;;;;2.38;0.50;;;;;;;;;;5026484;28;20484;-77
2021/07/29 14:00:59;;;;;;;2.15;0.50;;;;;;;;;;5027332;28;20061;-77
2021/07/29 14:03:25;;;;;;;0.22;0.22;;;;;;;;;;5027491;28;20065;-78
2021/07/29 14:05:52;;;;;;;1.77;0.60;;;;;;;;;;5025841;28;20057;-78
2021/07/29 14:08:18;;;;;;;0.60;0.40;;;;;;;;;;5035200;28;20507;-79
2021/07/29 14:10:46;;;;;;;2.47;0.65;;;;;;;;;;5020993;28;20046;-79
2021/07/29 14:13:12;;;;;;;2.03;0.40;;;;;;;;;;5025601;28;20036;-79
2021/07/29 14:15:39;;;;;;;1.58;0.40;;;;;;;;;;5038929;28;20495;-78
2021/07/29 14:18:07;;;;;;;2.58;0.50;;;;;;;;;;5028691;28;20103;-79
2021/07/29 14:20:37;;;;;;;2.42;0.40;;;;;;;;;;5019393;28;20058;-72
2021/07/29 14:23:14;;;;;;;0.70;0.40;;;;;;;;;;5022653;28;20147;-74
2021/07/29 14:25:42;;;;;;;2.15;0.40;;;;;;;;;;5016816;28;20077;-73
2021/07/29 14:28:09;;;;;;;1.25;0.73;;;;;;;;;;5053187;28;20552;-73
2021/07/29 14:30:37;;;;;;;2.33;0.70;;;;;;;;;;5023257;28;20069;-73
2021/07/29 14:33:05;;;;;;;3.00;1.50;;;;;;;;;;5022179;28;21292;-73
2021/07/29 14:35:31;;;;;;;1.88;0.85;;;;;;;;;;5019686;28;20123;-74
2021/07/29 14:37:58;;;;;;;3.72;0.70;;;;;;;;;;5021580;28;20119;-76
2021/07/29 14:40:24;;;;;;;2.30;0.95;;;;;;;;;;5016105;28;20077;-76
2021/07/29 14:42:51;;;;;;;3.70;0.60;;;;;;;;;;5016584;28;20073;-78
2021/07/29 14:45:36;;;;;;;;;;;;;;;;;;;;;
2021/07/29 14:50:59;;;;;;;3.22;1.10;;;;;;;;;;5020920;28;20140;-75
2021/07/29 14:53:25;;;;;;;2.70;0.80;;;;;;;;;;5026982;28;20445;-73